createdAt,value
2019-04-29T00:00:44.509Z,0
2019-04-29T00:01:44.484Z,0
2019-04-29T00:02:59.171Z,0
2019-04-29T00:04:44.539Z,0
2019-04-29T00:05:59.261Z,0
2019-04-29T00:06:44.594Z,0
2019-04-29T00:07:44.603Z,0
2019-04-29T00:08:44.379Z,0
2019-04-29T00:09:44.639Z,0
2019-04-29T00:10:44.653Z,0
2019-04-29T00:11:44.674Z,0
2019-04-29T00:12:44.692Z,0
2019-04-29T00:13:44.814Z,0
2019-04-29T00:14:44.734Z,0
2019-04-29T00:15:44.756Z,0
2019-04-29T00:16:44.770Z,0
2019-04-29T00:17:59.453Z,0
2019-04-29T00:18:59.473Z,0
2019-04-29T00:19:44.879Z,0
2019-04-29T00:20:44.847Z,0
2019-04-29T00:21:44.863Z,0
2019-04-29T00:22:44.885Z,0
2019-04-29T00:24:03.750Z,0
2019-04-29T00:24:44.922Z,0
2019-04-29T00:25:44.942Z,0
2019-04-29T00:26:44.960Z,0
2019-04-29T00:27:44.977Z,0
2019-04-29T00:30:45.035Z,0
2019-04-29T00:31:59.718Z,0
2019-04-29T00:32:45.087Z,0
2019-04-29T00:33:45.109Z,0
2019-04-29T00:34:45.110Z,0
2019-04-29T00:35:45.135Z,0
2019-04-29T00:36:45.147Z,0
2019-04-29T00:37:59.830Z,0
2019-04-29T00:38:45.196Z,0
2019-04-29T00:39:45.209Z,0
2019-04-29T00:40:45.222Z,0
2019-04-29T00:41:45.257Z,0
2019-04-29T00:42:45.269Z,0
2019-04-29T00:43:45.287Z,0
2019-04-29T00:44:45.317Z,0
2019-04-29T00:45:45.336Z,0
2019-04-29T00:46:45.342Z,0
2019-04-29T00:47:45.106Z,0
2019-04-29T00:48:45.377Z,0
2019-04-29T00:51:00.079Z,0
2019-04-29T00:51:45.190Z,0
2019-04-29T00:52:45.459Z,0
2019-04-29T00:54:45.244Z,0
2019-04-29T00:55:45.263Z,0
2019-04-29T00:56:59.942Z,0
2019-04-29T00:57:45.554Z,0
2019-04-29T00:58:45.564Z,0
2019-04-29T00:59:45.586Z,0
2019-04-29T01:00:45.609Z,0
2019-04-29T01:02:00.286Z,0
2019-04-29T01:02:45.642Z,0
2019-04-29T01:03:48.334Z,0
2019-04-29T01:04:45.682Z,0
2019-04-29T01:05:45.707Z,0
2019-04-29T01:07:00.380Z,0
2019-04-29T01:07:45.735Z,0
2019-04-29T01:08:45.782Z,0
2019-04-29T01:10:00.467Z,0
2019-04-29T01:10:45.803Z,0
2019-04-29T01:11:45.810Z,0
2019-04-29T01:12:45.835Z,0
2019-04-29T01:13:45.852Z,0
2019-04-29T01:14:45.865Z,0
2019-04-29T01:15:45.887Z,0
2019-04-29T01:16:45.909Z,0
2019-04-29T01:17:45.923Z,0
2019-04-29T01:18:45.948Z,0
2019-04-29T01:19:45.969Z,0
2019-04-29T01:20:45.982Z,0
2019-04-29T01:21:46.004Z,0
2019-04-29T01:22:46.075Z,0
2019-04-29T01:23:46.053Z,0
2019-04-29T01:24:46.065Z,0
2019-04-29T01:26:00.756Z,0
2019-04-29T01:26:46.097Z,0
2019-04-29T01:27:46.112Z,0
2019-04-29T01:28:49.133Z,0
2019-04-29T01:29:46.151Z,0
2019-04-29T01:30:46.167Z,0
2019-04-29T01:31:46.204Z,0
2019-04-29T01:32:46.205Z,0
2019-04-29T01:33:46.224Z,0
2019-04-29T01:35:00.912Z,0
2019-04-29T01:35:46.264Z,0
2019-04-29T01:36:46.281Z,0
2019-04-29T01:38:01.030Z,0
2019-04-29T01:38:48.666Z,0
2019-04-29T01:40:00.756Z,0
2019-04-29T01:41:01.020Z,0
2019-04-29T01:41:46.393Z,0
2019-04-29T01:42:46.394Z,0
2019-04-29T01:43:46.414Z,0
2019-04-29T01:44:46.431Z,0
2019-04-29T01:45:46.449Z,0
2019-04-29T01:46:46.471Z,0
2019-04-29T01:48:46.509Z,0
2019-04-29T01:49:46.526Z,0
2019-04-29T01:50:46.542Z,0
2019-04-29T01:51:46.576Z,0
2019-04-29T01:53:01.246Z,0
2019-04-29T01:54:01.264Z,0
2019-04-29T01:54:46.661Z,0
2019-04-29T01:55:46.637Z,0
2019-04-29T01:56:46.656Z,0
2019-04-29T01:57:46.433Z,0
2019-04-29T01:58:46.696Z,0
2019-04-29T01:59:46.776Z,0
2019-04-29T02:00:46.486Z,0
2019-04-29T02:01:46.754Z,0
2019-04-29T02:03:01.436Z,0
2019-04-29T02:03:46.799Z,0
2019-04-29T02:05:46.884Z,0
2019-04-29T02:06:46.843Z,0
2019-04-29T02:07:46.863Z,0
2019-04-29T02:08:46.886Z,0
2019-04-29T02:09:46.902Z,0
2019-04-29T02:10:46.959Z,0
2019-04-29T02:11:46.942Z,0
2019-04-29T02:13:01.630Z,0
2019-04-29T02:13:47.028Z,0
2019-04-29T02:14:47.000Z,0
2019-04-29T02:15:46.863Z,0
2019-04-29T02:16:47.031Z,0
2019-04-29T02:18:01.714Z,0
2019-04-29T02:18:47.069Z,0
2019-04-29T02:19:47.091Z,0
2019-04-29T02:20:47.104Z,0
2019-04-29T02:22:01.785Z,0
2019-04-29T02:22:47.139Z,0
2019-04-29T02:23:46.913Z,0
2019-04-29T02:24:47.240Z,0
2019-04-29T02:25:47.270Z,0
2019-04-29T02:26:47.218Z,0
2019-04-29T02:27:47.235Z,0
2019-04-29T02:29:01.921Z,0
2019-04-29T02:29:47.268Z,0
2019-04-29T02:30:47.305Z,0
2019-04-29T02:32:01.773Z,0
2019-04-29T02:32:47.339Z,0
2019-04-29T02:33:47.458Z,0
2019-04-29T02:34:47.374Z,0
2019-04-29T02:36:02.053Z,0
2019-04-29T02:36:47.550Z,0
2019-04-29T02:37:47.427Z,0
2019-04-29T02:38:47.301Z,0
2019-04-29T02:40:47.485Z,0
2019-04-29T02:41:47.505Z,0
2019-04-29T02:42:47.309Z,0
2019-04-29T02:43:47.551Z,0
2019-04-29T02:45:02.217Z,0
2019-04-29T02:45:47.677Z,0
2019-04-29T02:47:47.617Z,0
2019-04-29T02:49:02.344Z,0
2019-04-29T02:49:47.688Z,0
2019-04-29T02:50:47.711Z,0
2019-04-29T02:51:47.775Z,0
2019-04-29T02:52:47.699Z,0
2019-04-29T02:54:47.745Z,0
2019-04-29T02:55:47.763Z,0
2019-04-29T02:57:02.469Z,0
2019-04-29T02:57:47.807Z,0
2019-04-29T02:58:47.841Z,0
2019-04-29T03:00:02.508Z,0
2019-04-29T03:01:02.518Z,0
2019-04-29T03:01:47.874Z,0
2019-04-29T03:03:47.907Z,0
2019-04-29T03:04:47.922Z,0
2019-04-29T03:05:47.939Z,0
2019-04-29T03:06:47.965Z,0
2019-04-29T03:07:47.981Z,0
2019-04-29T03:08:48.009Z,0
2019-04-29T03:09:48.016Z,0
2019-04-29T03:10:48.051Z,0
2019-04-29T03:11:48.062Z,0
2019-04-29T03:12:48.127Z,0
2019-04-29T03:13:48.094Z,4
2019-04-29T03:14:48.110Z,4
2019-04-29T03:16:02.791Z,4
2019-04-29T03:16:48.183Z,0
2019-04-29T03:17:48.175Z,4
2019-04-29T03:18:48.190Z,4
2019-04-29T03:19:48.202Z,4
2019-04-29T03:20:48.261Z,4
2019-04-29T03:21:47.995Z,4
2019-04-29T03:22:48.266Z,4
2019-04-29T03:23:48.066Z,4
2019-04-29T03:24:48.307Z,8
2019-04-29T03:25:48.316Z,8
2019-04-29T03:26:48.343Z,12
2019-04-29T03:28:03.024Z,12
2019-04-29T03:28:48.389Z,12
2019-04-29T03:30:03.063Z,12
2019-04-29T03:30:48.589Z,16
2019-04-29T03:31:48.507Z,20
2019-04-29T03:32:48.460Z,20
2019-04-29T03:34:48.496Z,24
2019-04-29T03:35:48.502Z,28
2019-04-29T03:36:48.522Z,32
2019-04-29T03:37:48.537Z,28
2019-04-29T03:38:48.656Z,32
2019-04-29T03:39:48.578Z,32
2019-04-29T03:40:48.602Z,36
2019-04-29T03:42:06.869Z,40
2019-04-29T03:42:48.632Z,40
2019-04-29T03:43:48.663Z,44
2019-04-29T03:44:48.662Z,44
2019-04-29T03:45:48.691Z,52
2019-04-29T03:47:03.125Z,52
2019-04-29T03:48:03.385Z,60
2019-04-29T03:48:48.504Z,60
2019-04-29T03:49:48.763Z,60
2019-04-29T03:50:48.798Z,64
2019-04-29T03:52:48.811Z,76
2019-04-29T03:53:48.910Z,80
2019-04-29T03:54:48.852Z,88
2019-04-29T03:55:48.875Z,112
2019-04-29T03:56:48.962Z,112
2019-04-29T03:57:48.915Z,108
2019-04-29T03:59:03.603Z,104
2019-04-29T04:00:03.658Z,120
2019-04-29T04:00:51.486Z,128
2019-04-29T04:01:48.491Z,144
2019-04-29T04:02:49.010Z,176
2019-04-29T04:04:03.674Z,180
2019-04-29T04:04:49.061Z,184
2019-04-29T04:05:49.054Z,168
2019-04-29T04:06:48.827Z,192
2019-04-29T04:07:49.100Z,244
2019-04-29T04:09:06.964Z,260
2019-04-29T04:09:49.126Z,228
2019-04-29T04:11:03.815Z,184
2019-04-29T04:12:49.197Z,264
2019-04-29T04:13:49.209Z,216
2019-04-29T04:14:49.223Z,196
2019-04-29T04:15:49.307Z,212
2019-04-29T04:16:49.269Z,256
2019-04-29T04:17:49.297Z,312
2019-04-29T04:18:49.300Z,328
2019-04-29T04:20:03.984Z,256
2019-04-29T04:20:49.432Z,292
2019-04-29T04:21:49.347Z,332
2019-04-29T04:22:49.431Z,436
2019-04-29T04:24:04.044Z,460
2019-04-29T04:24:49.441Z,480
2019-04-29T04:25:49.475Z,384
2019-04-29T04:26:49.437Z,284
2019-04-29T04:28:04.120Z,364
2019-04-29T04:29:04.138Z,484
2019-04-29T04:31:08.838Z,564
2019-04-29T04:31:49.530Z,648
2019-04-29T04:32:49.560Z,528
2019-04-29T04:33:49.613Z,624
2019-04-29T04:35:04.251Z,640
2019-04-29T04:36:18.942Z,656
2019-04-29T04:36:49.629Z,624
2019-04-29T04:37:49.423Z,472
2019-04-29T04:38:49.657Z,420
2019-04-29T04:39:49.689Z,440
2019-04-29T04:40:49.697Z,488
2019-04-29T04:41:49.773Z,432
2019-04-29T04:42:49.747Z,336
2019-04-29T04:43:49.789Z,384
2019-04-29T04:44:49.810Z,456
2019-04-29T04:46:04.463Z,428
2019-04-29T04:46:49.810Z,480
2019-04-29T04:47:49.873Z,440
2019-04-29T04:48:49.679Z,388
2019-04-29T04:49:49.667Z,400
2019-04-29T04:51:04.563Z,400
2019-04-29T04:51:49.896Z,428
2019-04-29T04:52:49.930Z,436
2019-04-29T04:53:49.953Z,472
2019-04-29T04:54:49.731Z,448
2019-04-29T04:55:49.965Z,432
2019-04-29T04:56:49.985Z,456
2019-04-29T04:57:50.017Z,548
2019-04-29T04:58:50.048Z,564
2019-04-29T04:59:50.049Z,596
2019-04-29T05:00:50.081Z,508
2019-04-29T05:02:50.100Z,644
2019-04-29T05:03:50.118Z,724
2019-04-29T05:05:50.156Z,720
2019-04-29T05:06:50.175Z,640
2019-04-29T05:07:50.197Z,668
2019-04-29T05:08:50.212Z,732
2019-04-29T05:09:50.223Z,748
2019-04-29T05:10:50.254Z,692
2019-04-29T05:11:50.266Z,740
2019-04-29T05:14:04.971Z,1160
2019-04-29T05:14:50.321Z,1080
2019-04-29T05:16:05.001Z,864
2019-04-29T05:17:05.023Z,796
2019-04-29T05:17:52.918Z,668
2019-04-29T05:19:05.071Z,704
2019-04-29T05:20:05.073Z,676
2019-04-29T05:20:50.430Z,736
2019-04-29T05:22:05.122Z,800
2019-04-29T05:23:05.216Z,752
2019-04-29T05:24:05.175Z,752
2019-04-29T05:24:50.514Z,672
2019-04-29T05:25:50.608Z,552
2019-04-29T05:26:50.539Z,524
2019-04-29T05:28:05.232Z,496
2019-04-29T05:28:50.577Z,480
2019-04-29T05:29:50.601Z,468
2019-04-29T05:30:50.623Z,448
2019-04-29T05:31:50.642Z,484
2019-04-29T05:32:50.653Z,520
2019-04-29T05:33:50.672Z,492
2019-04-29T05:34:55.780Z,576
2019-04-29T05:35:50.784Z,588
2019-04-29T05:36:50.729Z,556
2019-04-29T05:37:50.498Z,552
2019-04-29T05:39:05.435Z,532
2019-04-29T05:39:50.793Z,572
2019-04-29T05:40:50.552Z,700
2019-04-29T05:41:50.826Z,704
2019-04-29T05:42:56.338Z,576
2019-04-29T05:43:50.857Z,540
2019-04-29T05:44:50.878Z,572
2019-04-29T05:46:09.987Z,568
2019-04-29T05:46:50.939Z,624
2019-04-29T05:48:05.596Z,600
2019-04-29T05:48:50.958Z,576
2019-04-29T05:50:06.534Z,648
2019-04-29T05:50:58.762Z,548
2019-04-29T05:51:51.013Z,492
2019-04-29T05:52:52.324Z,596
2019-04-29T05:53:59.692Z,752
2019-04-29T05:55:09.378Z,692
2019-04-29T05:55:52.591Z,596
2019-04-29T05:56:51.106Z,600
2019-04-29T05:57:51.123Z,580
2019-04-29T05:58:51.138Z,644
2019-04-29T06:00:09.982Z,728
2019-04-29T06:00:51.175Z,744
2019-04-29T06:01:54.438Z,672
2019-04-29T06:02:51.215Z,684
2019-04-29T06:03:51.745Z,688
2019-04-29T06:04:55.058Z,728
2019-04-29T06:05:51.276Z,744
2019-04-29T06:06:51.290Z,796
2019-04-29T06:07:56.061Z,840
2019-04-29T06:08:51.331Z,852
2019-04-29T06:09:51.346Z,824
2019-04-29T06:11:06.029Z,872
2019-04-29T06:11:51.395Z,920
2019-04-29T06:12:51.598Z,868
2019-04-29T06:13:51.480Z,932
2019-04-29T06:14:51.444Z,1016
2019-04-29T06:16:52.879Z,1140
2019-04-29T06:17:53.366Z,1360
2019-04-29T06:18:59.284Z,1592
2019-04-29T06:19:51.535Z,1604
2019-04-29T06:21:09.066Z,1956
2019-04-29T06:21:51.568Z,2216
2019-04-29T06:23:54.338Z,2592
2019-04-29T06:24:51.621Z,2540
2019-04-29T06:26:06.367Z,2816
2019-04-29T06:26:51.663Z,2676
2019-04-29T06:27:51.697Z,2564
2019-04-29T06:28:51.698Z,2616
2019-04-29T06:29:51.729Z,2368
2019-04-29T06:31:07.099Z,2200
2019-04-29T06:31:51.751Z,2088
2019-04-29T06:32:51.790Z,1848
2019-04-29T06:34:07.913Z,1996
2019-04-29T06:34:51.909Z,2092
2019-04-29T06:36:09.419Z,1808
2019-04-29T06:36:51.606Z,1844
2019-04-29T06:37:51.871Z,1992
2019-04-29T06:39:51.907Z,2144
2019-04-29T06:40:51.933Z,2052
2019-04-29T06:41:53.744Z,1896
2019-04-29T06:42:56.073Z,1828
2019-04-29T06:43:56.099Z,1768
2019-04-29T06:44:56.467Z,1764
2019-04-29T06:45:52.015Z,1600
2019-04-29T06:46:57.263Z,1388
2019-04-29T06:47:52.065Z,1212
2019-04-29T06:49:10.278Z,1180
2019-04-29T06:49:52.100Z,1324
2019-04-29T06:50:54.652Z,1376
2019-04-29T06:51:52.131Z,1400
2019-04-29T06:52:52.147Z,1556
2019-04-29T06:53:54.988Z,1636
2019-04-29T06:54:52.189Z,1620
2019-04-29T06:55:52.212Z,1616
2019-04-29T06:56:52.234Z,1904
2019-04-29T06:58:06.908Z,1792
2019-04-29T06:58:53.903Z,1948
2019-04-29T06:59:57.208Z,2304
2019-04-29T07:01:03.100Z,2024
2019-04-29T07:01:52.086Z,1792
2019-04-29T07:03:55.684Z,1696
2019-04-29T07:04:52.401Z,1756
2019-04-29T07:06:06.823Z,1816
2019-04-29T07:07:04.415Z,2752
2019-04-29T07:07:52.429Z,3296
2019-04-29T07:08:52.540Z,3236
2019-04-29T07:09:52.478Z,3080
2019-04-29T07:10:55.813Z,2828
2019-04-29T07:11:52.266Z,2352
2019-04-29T07:12:54.769Z,1936
2019-04-29T07:14:07.207Z,1976
2019-04-29T07:14:52.620Z,1912
2019-04-29T07:15:55.069Z,2088
2019-04-29T07:16:52.366Z,1712
2019-04-29T07:18:07.282Z,1668
2019-04-29T07:19:12.994Z,1872
2019-04-29T07:19:52.425Z,1740
2019-04-29T07:20:52.892Z,1852
2019-04-29T07:21:59.765Z,1736
2019-04-29T07:22:56.382Z,1752
2019-04-29T07:23:52.734Z,1752
2019-04-29T07:24:52.751Z,1960
2019-04-29T07:25:52.776Z,2072
2019-04-29T07:27:07.451Z,2132
2019-04-29T07:27:52.812Z,2364
2019-04-29T07:29:10.367Z,2236
2019-04-29T07:30:11.675Z,2460
2019-04-29T07:31:22.771Z,2624
2019-04-29T07:32:54.587Z,2964
2019-04-29T07:33:57.860Z,3280
2019-04-29T07:34:52.950Z,3280
2019-04-29T07:35:55.394Z,3008
2019-04-29T07:37:07.644Z,3580
2019-04-29T07:38:08.512Z,3344
2019-04-29T07:39:01.500Z,3088
2019-04-29T07:39:53.036Z,2952
2019-04-29T07:40:53.059Z,2728
2019-04-29T07:42:13.206Z,2764
2019-04-29T07:42:53.097Z,2564
2019-04-29T07:43:53.110Z,2232
2019-04-29T07:44:58.806Z,2292
2019-04-29T07:46:08.849Z,2072
2019-04-29T07:47:06.825Z,1836
2019-04-29T07:48:08.930Z,1656
2019-04-29T07:49:08.148Z,1880
2019-04-29T07:49:57.663Z,1756
2019-04-29T07:50:53.257Z,1756
2019-04-29T07:51:53.289Z,1680
2019-04-29T07:52:58.146Z,1756
2019-04-29T07:53:53.302Z,1772
2019-04-29T07:55:00.832Z,1800
2019-04-29T07:56:53.365Z,1944
2019-04-29T07:58:58.790Z,2112
2019-04-29T07:59:53.474Z,1988
2019-04-29T08:01:08.103Z,2060
2019-04-29T08:01:55.543Z,1724
2019-04-29T08:02:53.483Z,1732
2019-04-29T08:04:53.511Z,1424
2019-04-29T08:05:53.532Z,1392
2019-04-29T08:07:08.223Z,1416
2019-04-29T08:07:53.575Z,1268
2019-04-29T08:09:12.252Z,1408
2019-04-29T08:09:53.604Z,1368
2019-04-29T08:11:03.160Z,1276
2019-04-29T08:11:53.652Z,1352
2019-04-29T08:12:53.667Z,1528
2019-04-29T08:13:53.683Z,2104
2019-04-29T08:14:57.834Z,2324
2019-04-29T08:15:53.729Z,2592
2019-04-29T08:16:53.747Z,2696
2019-04-29T08:18:11.234Z,2728
2019-04-29T08:18:58.521Z,2732
2019-04-29T08:19:53.795Z,3048
2019-04-29T08:20:53.813Z,3268
2019-04-29T08:21:56.890Z,3476
2019-04-29T08:22:53.856Z,3636
2019-04-29T08:24:11.512Z,3964
2019-04-29T08:24:57.762Z,4040
2019-04-29T08:26:02.400Z,3652
2019-04-29T08:26:54.774Z,3516
2019-04-29T08:27:53.969Z,3516
2019-04-29T08:29:08.670Z,3680
2019-04-29T08:29:53.987Z,3448
2019-04-29T08:30:54.552Z,3052
2019-04-29T08:32:02.174Z,3320
2019-04-29T08:33:14.648Z,3808
2019-04-29T08:33:55.651Z,3884
2019-04-29T08:35:08.770Z,3684
2019-04-29T08:35:54.191Z,3712
2019-04-29T08:36:54.159Z,3780
2019-04-29T08:38:08.808Z,4184
2019-04-29T08:39:07.560Z,4852
2019-04-29T08:40:36.153Z,6664
2019-04-29T08:42:11.457Z,7960
2019-04-29T08:42:54.247Z,8688
2019-04-29T08:44:15.605Z,10004
2019-04-29T08:44:59.574Z,9864
2019-04-29T08:45:54.317Z,10256
2019-04-29T08:46:59.020Z,9468
2019-04-29T08:47:54.333Z,9316
2019-04-29T08:49:15.467Z,9132
2019-04-29T08:49:54.385Z,8356
2019-04-29T08:50:54.405Z,8796
2019-04-29T08:51:54.491Z,8420
2019-04-29T08:52:54.438Z,7816
2019-04-29T08:53:54.464Z,8656
2019-04-29T08:55:00.512Z,9652
2019-04-29T08:56:10.093Z,9248
2019-04-29T08:57:09.976Z,9560
2019-04-29T08:57:54.528Z,9536
2019-04-29T08:58:56.405Z,9628
2019-04-29T09:00:09.245Z,10940
2019-04-29T09:00:58.261Z,11444
2019-04-29T09:01:54.369Z,12416
2019-04-29T09:02:56.486Z,14604
2019-04-29T09:04:00.515Z,16308
2019-04-29T09:05:15.698Z,18336
2019-04-29T09:06:11.805Z,15880
2019-04-29T09:06:54.468Z,17440
2019-04-29T09:08:01.553Z,22304
2019-04-29T09:09:09.164Z,13756
2019-04-29T09:10:03.671Z,13452
2019-04-29T09:11:56.498Z,11372
2019-04-29T09:13:54.701Z,9540
2019-04-29T09:14:54.887Z,8984
2019-04-29T09:15:54.925Z,9412
2019-04-29T09:16:54.771Z,8344
2019-04-29T09:17:54.951Z,7200
2019-04-29T09:18:54.962Z,5988
2019-04-29T09:19:54.998Z,6068
2019-04-29T09:21:09.675Z,6228
2019-04-29T09:22:09.440Z,6604
2019-04-29T09:22:55.076Z,6800
2019-04-29T09:23:55.066Z,6148
2019-04-29T09:25:11.374Z,6260
2019-04-29T09:26:26.747Z,6504
2019-04-29T09:26:55.125Z,6596
2019-04-29T09:27:56.385Z,6540
2019-04-29T09:28:59.652Z,6812
2019-04-29T09:30:03.124Z,7188
2019-04-29T09:31:09.874Z,6812
2019-04-29T09:31:54.990Z,7280
2019-04-29T09:33:15.030Z,7368
2019-04-29T09:34:10.771Z,6992
2019-04-29T09:34:59.401Z,6820
2019-04-29T09:36:56.872Z,6564
2019-04-29T09:38:00.965Z,6116
2019-04-29T09:38:55.386Z,5916
2019-04-29T09:40:10.115Z,6288
2019-04-29T09:41:02.169Z,6160
2019-04-29T09:41:55.190Z,6268
2019-04-29T09:42:59.444Z,6888
2019-04-29T09:43:59.145Z,7284
2019-04-29T09:44:55.500Z,7568
2019-04-29T09:46:01.457Z,7620
2019-04-29T09:46:55.296Z,7244
2019-04-29T09:47:55.613Z,7200
2019-04-29T09:48:55.585Z,7644
2019-04-29T09:49:55.604Z,7608
2019-04-29T09:50:55.621Z,8248
2019-04-29T09:52:55.660Z,7420
2019-04-29T09:53:55.711Z,7876
2019-04-29T09:54:55.702Z,7780
2019-04-29T09:55:55.725Z,7756
2019-04-29T09:56:55.513Z,8916
2019-04-29T09:57:55.764Z,8164
2019-04-29T09:59:10.446Z,8236
2019-04-29T09:59:55.822Z,7476
2019-04-29T10:00:58.333Z,8064
2019-04-29T10:01:59.967Z,7776
2019-04-29T10:02:55.861Z,8232
2019-04-29T10:03:55.888Z,8768
2019-04-29T10:05:03.934Z,7988
2019-04-29T10:06:55.953Z,7644
2019-04-29T10:08:10.632Z,6464
2019-04-29T10:08:55.993Z,7268
2019-04-29T10:10:10.890Z,7152
2019-04-29T10:10:56.058Z,6264
2019-04-29T10:11:56.051Z,6176
2019-04-29T10:12:58.747Z,5920
2019-04-29T10:13:56.089Z,6420
2019-04-29T10:15:10.775Z,5928
2019-04-29T10:16:00.297Z,5912
2019-04-29T10:17:15.307Z,5948
2019-04-29T10:18:00.875Z,5960
2019-04-29T10:18:56.194Z,5684
2019-04-29T10:19:56.217Z,5396
2019-04-29T10:20:56.289Z,5320
2019-04-29T10:21:56.308Z,5892
2019-04-29T10:23:00.505Z,5368
2019-04-29T10:24:10.972Z,5756
2019-04-29T10:24:56.331Z,7552
2019-04-29T10:26:10.750Z,6828
2019-04-29T10:26:56.360Z,6972
2019-04-29T10:27:56.383Z,6988
2019-04-29T10:28:56.403Z,7896
2019-04-29T10:30:56.443Z,6752
2019-04-29T10:32:11.123Z,6208
2019-04-29T10:32:56.511Z,6424
2019-04-29T10:34:14.554Z,6300
2019-04-29T10:34:56.523Z,6564
2019-04-29T10:35:56.550Z,7032
2019-04-29T10:36:59.545Z,7072
2019-04-29T10:37:56.581Z,7080
2019-04-29T10:38:56.624Z,7608
2019-04-29T10:40:16.295Z,7140
2019-04-29T10:41:00.541Z,7448
2019-04-29T10:42:11.334Z,8076
2019-04-29T10:42:56.694Z,7644
2019-04-29T10:44:00.915Z,6984
2019-04-29T10:44:56.746Z,6572
2019-04-29T10:46:11.413Z,6604
2019-04-29T10:47:11.438Z,6664
2019-04-29T10:48:11.474Z,6520
2019-04-29T10:48:58.937Z,6316
2019-04-29T10:49:57.107Z,6300
2019-04-29T10:50:59.427Z,6776
2019-04-29T10:52:02.754Z,6832
2019-04-29T10:52:56.890Z,6200
2019-04-29T10:53:58.269Z,6504
2019-04-29T10:55:01.897Z,6676
2019-04-29T10:56:11.855Z,7044
2019-04-29T10:56:56.725Z,7344
2019-04-29T10:57:58.540Z,6632
2019-04-29T10:58:57.012Z,6344
2019-04-29T11:00:12.124Z,5964
2019-04-29T11:01:02.278Z,5936
2019-04-29T11:02:58.342Z,6460
2019-04-29T11:04:03.621Z,6460
2019-04-29T11:04:57.137Z,6712
2019-04-29T11:06:07.898Z,6680
2019-04-29T11:06:56.941Z,6328
2019-04-29T11:08:02.472Z,6308
2019-04-29T11:08:57.221Z,6708
2019-04-29T11:11:27.123Z,6560
2019-04-29T11:11:57.037Z,6848
2019-04-29T11:12:57.303Z,6888
2019-04-29T11:14:01.396Z,7148
2019-04-29T11:14:57.355Z,7760
2019-04-29T11:15:58.426Z,6972
2019-04-29T11:16:57.402Z,7192
2019-04-29T11:18:08.415Z,7448
2019-04-29T11:19:05.235Z,7880
2019-04-29T11:19:57.453Z,8352
2019-04-29T11:21:01.183Z,7852
2019-04-29T11:22:12.154Z,7116
2019-04-29T11:22:57.526Z,7068
2019-04-29T11:24:01.562Z,6996
2019-04-29T11:24:57.553Z,7080
2019-04-29T11:25:58.596Z,6916
2019-04-29T11:27:10.788Z,6500
2019-04-29T11:28:00.577Z,6796
2019-04-29T11:28:59.598Z,6308
2019-04-29T11:30:02.819Z,6308
2019-04-29T11:30:57.682Z,6620
2019-04-29T11:32:16.017Z,6728
2019-04-29T11:33:12.386Z,6228
2019-04-29T11:33:57.759Z,6344
2019-04-29T11:35:00.574Z,6632
2019-04-29T11:36:12.447Z,6404
2019-04-29T11:36:57.556Z,6352
2019-04-29T11:38:04.806Z,6192
2019-04-29T11:39:16.528Z,6280
2019-04-29T11:40:01.795Z,6528
2019-04-29T11:40:57.895Z,7112
2019-04-29T11:43:59.819Z,8364
2019-04-29T11:45:04.946Z,8284
2019-04-29T11:45:57.989Z,8444
2019-04-29T11:46:57.767Z,8088
2019-04-29T11:48:12.747Z,8984
2019-04-29T11:49:12.716Z,9508
2019-04-29T11:49:58.071Z,9208
2019-04-29T11:51:02.055Z,9412
2019-04-29T11:52:16.407Z,8968
2019-04-29T11:53:00.415Z,9720
2019-04-29T11:53:58.167Z,9536
2019-04-29T11:54:58.178Z,9656
2019-04-29T11:56:02.174Z,9480
2019-04-29T11:56:57.979Z,9468
2019-04-29T11:59:13.134Z,10056
2019-04-29T11:59:58.290Z,10104
2019-04-29T12:00:59.322Z,10348
2019-04-29T12:02:15.088Z,10808
2019-04-29T12:02:58.361Z,10316
2019-04-29T12:04:03.361Z,10300
2019-04-29T12:04:58.463Z,10696
2019-04-29T12:05:58.410Z,10688
2019-04-29T12:07:03.315Z,10772
2019-04-29T12:08:16.823Z,10744
2019-04-29T12:09:00.261Z,10536
2019-04-29T12:10:02.190Z,10648
2019-04-29T12:11:13.784Z,10712
2019-04-29T12:12:15.541Z,10460
2019-04-29T12:12:58.705Z,9900
2019-04-29T12:14:02.977Z,10140
2019-04-29T12:15:16.319Z,10352
2019-04-29T12:15:58.623Z,10336
2019-04-29T12:17:01.979Z,10344
2019-04-29T12:18:13.337Z,10176
2019-04-29T12:18:58.692Z,10140
2019-04-29T12:19:58.859Z,10004
2019-04-29T12:20:58.732Z,9896
2019-04-29T12:21:58.761Z,9872
2019-04-29T12:23:15.605Z,9580
2019-04-29T12:24:13.946Z,9544
2019-04-29T12:24:58.820Z,9644
2019-04-29T12:28:23.203Z,9588
2019-04-29T12:28:58.907Z,9408
2019-04-29T12:30:04.395Z,9304
2019-04-29T12:31:15.356Z,9160
2019-04-29T12:31:58.725Z,9044
2019-04-29T12:33:05.675Z,9264
2019-04-29T12:33:59.122Z,9264
2019-04-29T12:34:59.034Z,9204
2019-04-29T12:36:06.018Z,9184
2019-04-29T12:37:03.525Z,9288
2019-04-29T12:38:05.499Z,9136
2019-04-29T12:38:58.947Z,9176
2019-04-29T12:40:02.114Z,9296
2019-04-29T12:41:02.371Z,9400
2019-04-29T12:42:04.403Z,9852
2019-04-29T12:43:02.233Z,10220
2019-04-29T12:44:04.438Z,10864
2019-04-29T12:45:19.395Z,11224
2019-04-29T12:46:29.899Z,11672
2019-04-29T12:46:59.298Z,11508
2019-04-29T12:47:59.346Z,11412
2019-04-29T12:48:59.350Z,11384
2019-04-29T12:49:59.364Z,11476
2019-04-29T12:51:04.560Z,11588
2019-04-29T12:51:59.409Z,11696
2019-04-29T12:52:59.471Z,11824
2019-04-29T12:53:59.451Z,12880
2019-04-29T12:55:04.146Z,12276
2019-04-29T12:56:00.969Z,12388
2019-04-29T12:56:59.525Z,12600
2019-04-29T12:57:59.601Z,12848
2019-04-29T12:59:04.987Z,12788
2019-04-29T13:00:16.419Z,12604
2019-04-29T13:01:49.639Z,12352
2019-04-29T13:02:07.265Z,12068
2019-04-29T13:03:09.505Z,11704
2019-04-29T13:04:05.907Z,11412
2019-04-29T13:05:05.939Z,11040
2019-04-29T13:06:12.105Z,10712
2019-04-29T13:07:09.288Z,10348
2019-04-29T13:08:20.661Z,10068
2019-04-29T13:09:22.331Z,9860
2019-04-29T13:10:13.655Z,9680
2019-04-29T13:11:35.649Z,9492
2019-04-29T13:12:25.132Z,9432
2019-04-29T13:15:20.816Z,9204
2019-04-29T13:17:19.323Z,9136
2019-04-29T13:18:25.612Z,9020
2019-04-29T13:19:29.668Z,8912
2019-04-29T13:21:17.326Z,8768
2019-04-29T13:22:10.456Z,8716
2019-04-29T13:24:12.440Z,8572
2019-04-29T13:24:33.102Z,8528
2019-04-29T13:25:50.852Z,8424
2019-04-29T13:26:42.857Z,8332
2019-04-29T13:27:33.818Z,8232
2019-04-29T13:29:00.950Z,7988
2019-04-29T13:29:38.836Z,7892
2019-04-29T13:30:32.189Z,7824
2019-04-29T13:31:45.349Z,7772
2019-04-29T13:32:40.416Z,7752
2019-04-29T13:33:32.266Z,7756
2019-04-29T13:35:32.302Z,7840
2019-04-29T13:36:57.255Z,7884
2019-04-29T13:37:32.349Z,7940
2019-04-29T13:38:32.371Z,8032
2019-04-29T13:40:39.498Z,8156
2019-04-29T13:41:33.206Z,8204
2019-04-29T13:42:32.476Z,8200
2019-04-29T13:43:40.068Z,8140
2019-04-29T13:44:32.518Z,8108
2019-04-29T13:45:33.584Z,8060
2019-04-29T13:46:32.558Z,7936
2019-04-29T13:47:36.508Z,7704
2019-04-29T13:49:06.794Z,7324
2019-04-29T13:49:32.693Z,7196
2019-04-29T13:50:46.315Z,7032
2019-04-29T13:51:42.958Z,6996
2019-04-29T13:52:47.381Z,7404
2019-04-29T13:53:32.790Z,7028
2019-04-29T13:54:32.737Z,7084
2019-04-29T13:56:32.525Z,7672
2019-04-29T13:57:18.681Z,7988
2019-04-29T13:58:02.159Z,9956
2019-04-29T13:59:20.513Z,10024
2019-04-29T14:00:02.206Z,10064
2019-04-29T14:01:04.842Z,10132
2019-04-29T14:02:12.287Z,10056
2019-04-29T14:03:11.474Z,9984
2019-04-29T14:04:02.316Z,10024
2019-04-29T14:05:05.154Z,10024
2019-04-29T14:06:14.346Z,9780
2019-04-29T14:07:20.902Z,8772
2019-04-29T14:08:03.947Z,9428
2019-04-29T14:09:06.396Z,9112
2019-04-29T14:10:02.432Z,8596
2019-04-29T14:11:17.222Z,9084
2019-04-29T14:13:13.164Z,9644
2019-04-29T14:13:48.162Z,9004
2019-04-29T14:14:32.977Z,9896
2019-04-29T14:15:33.809Z,9104
2019-04-29T14:16:28.662Z,8556
2019-04-29T14:19:00.912Z,8324
2019-04-29T14:20:17.533Z,8316
2019-04-29T14:21:14.285Z,8312
2019-04-29T14:22:24.464Z,8284
2019-04-29T14:23:10.887Z,8248
2019-04-29T14:24:11.040Z,8224
2019-04-29T14:26:10.955Z,8196
2019-04-29T14:27:27.784Z,8148
2019-04-29T14:28:10.999Z,8120
2019-04-29T14:29:11.087Z,8052
2019-04-29T14:31:11.129Z,7940
2019-04-29T14:32:11.091Z,7824
2019-04-29T14:33:11.172Z,7656